Time;durP1;ratioP1;P1;durP2;ratioP2;P2;SDS_P1;SDS_P2;PMS_P1;PMS_P2;Temp;Humidity;BMP_temperature;BMP_pressure;BME280_temperature;BME280_humidity;BME280_pressure;Samples;Min_cycle;Max_cycle;Signal;HPM_P1;HPM_P2
2024/03/11 00:02:23;;;;;;;24.27;21.98;;;;;;;8.70;100.00;99748.53;5089987;28;20027;-39
2024/03/11 00:04:54;;;;;;;24.35;21.95;;;;;;;8.75;100.00;99757.50;5090558;28;20028;-39
2024/03/11 00:07:20;;;;;;;26.10;23.50;;;;;;;8.78;100.00;99761.56;5075697;28;20027;-39
2024/03/11 00:09:48;;;;;;;24.52;22.13;;;;;;;8.77;100.00;99755.38;5076155;28;20024;-39
2024/03/11 00:12:17;;;;;;;25.40;22.92;;;;;;;8.80;100.00;99764.88;5076340;28;20068;-40
2024/03/11 00:14:47;;;;;;;25.83;23.33;;;;;;;8.77;100.00;99765.34;5076565;28;20111;-39
2024/03/11 00:17:13;;;;;;;24.85;22.42;;;;;;;8.79;100.00;99768.63;5075684;28;20027;-39
2024/03/11 00:19:39;;;;;;;24.15;21.75;;;;;;;8.69;100.00;99763.88;5076531;28;20070;-39
2024/03/11 00:22:04;;;;;;;25.00;22.58;;;;;;;8.66;100.00;99771.63;5076261;28;20368;-39
2024/03/11 00:24:30;;;;;;;25.45;22.88;;;;;;;8.61;100.00;99758.09;5076175;28;20515;-39
2024/03/11 00:26:56;;;;;;;25.63;23.03;;;;;;;8.73;100.00;99769.59;5075661;28;20447;-40
2024/03/11 00:29:21;;;;;;;26.85;24.25;;;;;;;8.67;100.00;99782.16;5076085;28;20314;-39
2024/03/11 00:31:48;;;;;;;26.00;23.38;;;;;;;8.66;100.00;99771.63;5075762;28;20028;-40
2024/03/11 00:34:19;;;;;;;25.90;23.30;;;;;;;8.68;100.00;99772.19;5076470;28;20024;-39
2024/03/11 00:36:45;;;;;;;27.58;24.88;;;;;;;8.62;100.00;99779.38;5075926;28;20016;-39
2024/03/11 00:39:10;;;;;;;26.73;24.23;;;;;;;8.58;100.00;99780.13;5076188;28;20115;-39
2024/03/11 00:41:36;;;;;;;26.23;23.65;;;;;;;8.50;100.00;99771.38;5075300;28;20021;-39
2024/03/11 00:44:02;;;;;;;25.20;22.75;;;;;;;8.50;100.00;99776.78;5075856;28;20032;-39
2024/03/11 00:46:29;;;;;;;24.63;22.25;;;;;;;8.50;100.00;99784.03;5075487;28;20449;-39
2024/03/11 00:48:58;;;;;;;26.42;23.75;;;;;;;8.43;100.00;99784.19;5075420;28;20107;-39
2024/03/11 00:51:24;;;;;;;27.23;24.42;;;;;;;8.42;100.00;99789.81;5075015;28;20085;-39
2024/03/11 00:53:50;;;;;;;26.95;24.25;;;;;;;8.42;100.00;99781.72;5076027;28;20040;-39
2024/03/11 00:56:16;;;;;;;26.60;23.83;;;;;;;8.48;100.00;99786.97;5075275;28;20027;-39
2024/03/11 00:58:42;;;;;;;26.77;24.08;;;;;;;8.40;100.00;99775.78;5075254;28;20061;-39
2024/03/11 01:01:10;;;;;;;25.40;23.00;;;;;;;8.42;100.00;99781.72;5075727;28;20024;-40
2024/03/11 01:03:35;;;;;;;25.00;22.45;;;;;;;8.48;100.00;99794.22;5075937;28;20025;-40
2024/03/11 01:06:00;;;;;;;25.52;23.02;;;;;;;8.42;100.00;99789.81;5074858;28;20514;-39
2024/03/11 01:08:29;;;;;;;27.47;24.67;;;;;;;8.48;100.00;99789.66;5075916;28;20039;-39
2024/03/11 01:10:55;;;;;;;27.20;24.60;;;;;;;8.39;100.00;99785.72;5074980;28;20487;-39
2024/03/11 01:13:21;;;;;;;26.83;24.08;;;;;;;8.46;100.00;99783.69;5075012;28;20020;-39
2024/03/11 01:15:47;;;;;;;28.58;25.48;;;;;;;8.43;100.00;99786.88;5074808;28;20120;-40
2024/03/11 01:18:14;;;;;;;;;;;;;;;8.59;100.00;99784.44;5075149;28;20369;-40
2024/03/11 01:20:40;;;;;;;24.95;22.35;;;;;;;8.45;100.00;99779.38;5074890;28;19908;-40
2024/03/11 01:23:06;;;;;;;26.42;23.67;;;;;;;8.38;100.00;99776.00;5075478;28;20027;-40
2024/03/11 01:25:33;;;;;;;25.52;23.02;;;;;;;8.48;100.00;99783.44;5075061;28;20464;-40
2024/03/11 01:27:58;;;;;;;26.58;23.98;;;;;;;8.47;100.00;99784.50;5074613;28;20566;-39
2024/03/11 01:30:24;;;;;;;25.98;23.48;;;;;;;8.46;100.00;99781.00;5074619;28;20028;-39
2024/03/11 01:32:50;;;;;;;26.08;23.48;;;;;;;8.46;100.00;99782.88;5074538;28;20032;-39
2024/03/11 01:35:16;;;;;;;26.95;24.25;;;;;;;8.46;100.00;99793.66;5074745;28;20052;-39
2024/03/11 01:37:41;;;;;;;26.70;23.85;;;;;;;8.42;100.00;99779.84;5074394;28;20065;-39
2024/03/11 01:40:10;;;;;;;26.33;23.73;;;;;;;8.41;100.00;99782.81;5074725;28;20040;-39
2024/03/11 01:42:36;;;;;;;26.33;23.73;;;;;;;8.43;100.00;99773.41;5074263;28;20607;-39
2024/03/11 01:45:02;;;;;;;25.95;23.42;;;;;;;8.44;100.00;99774.22;5074348;28;20038;-39
2024/03/11 01:47:29;;;;;;;24.02;21.70;;;;;;;8.38;100.00;99776.00;5074232;28;20021;-39
2024/03/11 01:49:59;;;;;;;24.58;22.13;;;;;;;8.23;100.00;99751.47;5074820;28;20137;-39
2024/03/11 01:52:30;;;;;;;24.42;22.05;;;;;;;8.40;100.00;99783.88;5074404;28;20028;-39
2024/03/11 01:54:56;;;;;;;25.73;23.15;;;;;;;8.38;100.00;99777.88;5074315;28;20453;-39
2024/03/11 01:57:24;;;;;;;24.95;22.45;;;;;;;8.32;100.00;99762.66;5074344;28;20067;-40
2024/03/11 01:59:51;;;;;;;26.73;23.92;;;;;;;8.27;100.00;99758.81;5074412;28;20025;-40
2024/03/11 02:02:20;;;;;;;27.92;25.13;;;;;;;8.25;100.00;99766.34;5074781;28;20044;-39
2024/03/11 02:04:46;;;;;;;27.25;24.55;;;;;;;8.34;100.00;99782.91;5073896;28;20040;-39
2024/03/11 02:07:13;;;;;;;27.95;25.15;;;;;;;8.30;100.00;99772.88;5073866;28;20499;-39
2024/03/11 02:09:42;;;;;;;26.45;23.88;;;;;;;8.35;100.00;99773.78;5073657;28;20024;-39
2024/03/11 02:12:11;;;;;;;26.90;24.20;;;;;;;8.31;100.00;99777.19;5073792;28;20071;-39
2024/03/11 02:14:37;;;;;;;28.33;25.52;;;;;;;8.31;100.00;99771.81;5073922;28;20071;-39
2024/03/11 02:17:06;;;;;;;28.40;25.58;;;;;;;8.20;100.00;99760.06;5073566;28;20380;-39
2024/03/11 02:19:33;;;;;;;26.10;23.60;;;;;;;8.27;100.00;99776.84;5073750;28;20060;-39
2024/03/11 02:22:03;;;;;;;27.88;25.13;;;;;;;8.21;100.00;99769.75;5073636;28;20460;-39
2024/03/11 02:24:29;;;;;;;28.52;25.77;;;;;;;8.24;100.00;99785.41;5074458;28;20060;-39
2024/03/11 02:26:54;;;;;;;27.13;24.48;;;;;;;8.23;100.00;99783.78;5073420;28;20052;-39
2024/03/11 02:29:20;;;;;;;27.55;24.85;;;;;;;8.23;100.00;99784.59;5073139;28;20021;-39
2024/03/11 02:31:51;;;;;;;28.77;25.92;;;;;;;8.17;100.00;99777.50;5073595;28;20099;-39
2024/03/11 02:34:17;;;;;;;25.75;23.15;;;;;;;8.26;100.00;99791.41;5074849;28;20021;-39
2024/03/11 02:36:47;;;;;;;26.50;23.80;;;;;;;8.26;100.00;99791.41;5073492;28;20020;-39
2024/03/11 02:39:14;;;;;;;24.88;22.30;;;;;;;8.25;100.00;99795.16;5074270;28;20044;-39
2024/03/11 02:41:43;;;;;;;26.80;24.17;;;;;;;8.22;100.00;99791.03;5073119;28;20024;-39
2024/03/11 02:44:09;;;;;;;29.17;26.17;;;;;;;8.04;100.00;99774.25;5073491;28;20461;-39
2024/03/11 02:46:35;;;;;;;27.83;24.92;;;;;;;8.15;100.00;99795.78;5073953;28;20021;-39
2024/03/11 02:49:01;;;;;;;27.80;25.10;;;;;;;8.06;100.00;99770.28;5074181;28;20031;-39
2024/03/11 02:51:27;;;;;;;27.50;24.80;;;;;;;8.19;100.00;99785.31;5073378;28;20119;-39
2024/03/11 02:53:52;;;;;;;26.88;24.27;;;;;;;8.15;100.00;99782.31;5073212;28;20044;-39
2024/03/11 02:56:18;;;;;;;30.25;27.20;;;;;;;8.08;100.00;99784.31;5073586;28;20433;-39
2024/03/11 02:58:44;;;;;;;29.42;26.38;;;;;;;8.06;100.00;99786.44;5074118;28;20025;-39
2024/03/11 03:01:09;;;;;;;28.98;25.92;;;;;;;8.12;100.00;99796.25;5073610;28;20031;-39
2024/03/11 03:03:35;;;;;;;29.13;26.13;;;;;;;8.09;100.00;99794.03;5072990;28;20066;-39
2024/03/11 03:06:01;;;;;;;28.48;25.77;;;;;;;8.13;100.00;99797.06;5073254;28;20074;-39
2024/03/11 03:08:26;;;;;;;;;;;;;;;8.22;100.00;99799.13;5074207;28;20064;-39
2024/03/11 03:10:52;;;;;;;27.10;24.30;;;;;;;8.10;100.00;99793.00;5073386;28;20241;-39
2024/03/11 03:13:17;;;;;;;29.13;26.23;;;;;;;8.02;100.00;99784.47;5074000;28;20432;-39
2024/03/11 03:15:43;;;;;;;27.90;25.10;;;;;;;8.06;100.00;99804.47;5073039;28;20028;-39
2024/03/11 03:18:08;;;;;;;28.73;25.73;;;;;;;8.06;100.00;99802.59;5073690;28;20066;-39
2024/03/11 03:20:34;;;;;;;30.42;27.20;;;;;;;7.93;100.00;99790.22;5073637;28;20246;-38
2024/03/11 03:22:59;;;;;;;29.48;26.50;;;;;;;8.02;100.00;99812.22;5073780;28;20075;-39
2024/03/11 03:25:30;;;;;;;30.40;27.37;;;;;;;8.03;100.00;99805.75;5073040;28;20024;-39
2024/03/11 03:27:56;;;;;;;30.42;27.40;;;;;;;7.99;100.00;99809.97;5072963;28;20031;-39
2024/03/11 03:30:22;;;;;;;30.70;27.60;;;;;;;7.95;100.00;99798.91;5073028;28;20440;-39
2024/03/11 03:32:48;;;;;;;29.70;26.73;;;;;;;7.91;100.00;99800.44;5072942;28;20037;-39
2024/03/11 03:35:14;;;;;;;28.65;25.77;;;;;;;7.95;100.00;99806.97;5072847;28;20029;-39
2024/03/11 03:37:40;;;;;;;31.23;28.13;;;;;;;7.96;100.00;99813.16;5073147;28;20519;-39
2024/03/11 03:40:15;;;;;;;;;;;;;;;8.09;100.00;99815.56;5074139;28;20340;-39
2024/03/11 03:42:42;;;;;;;28.73;25.85;;;;;;;7.97;100.00;99810.22;5076308;28;19951;-39
2024/03/11 03:45:09;;;;;;;30.25;27.17;;;;;;;7.88;100.00;99806.28;5077201;28;20029;-39
2024/03/11 03:47:36;;;;;;;31.05;27.95;;;;;;;7.87;100.00;99815.41;5076463;28;20352;-39
2024/03/11 03:50:02;;;;;;;30.75;27.75;;;;;;;7.86;100.00;99811.09;5076506;28;20035;-39
2024/03/11 03:52:29;;;;;;;30.92;27.70;;;;;;;7.85;100.00;99814.81;5076421;28;20024;-39
2024/03/11 03:54:54;;;;;;;32.08;28.77;;;;;;;7.83;100.00;99816.13;5076749;28;20349;-39
2024/03/11 03:57:21;;;;;;;31.00;28.00;;;;;;;7.83;100.00;99806.16;5076015;28;20086;-39
2024/03/11 03:59:48;;;;;;;32.75;29.42;;;;;;;7.70;100.00;99801.84;5076368;28;20113;-39
2024/03/11 04:02:13;;;;;;;33.78;30.27;;;;;;;7.71;100.00;99808.91;5075974;28;20028;-39
2024/03/11 04:04:43;;;;;;;32.45;29.25;;;;;;;7.68;100.00;99805.84;5076512;28;20032;-39
2024/03/11 04:07:08;;;;;;;32.17;28.98;;;;;;;7.65;100.00;99806.31;5075860;28;20031;-39
2024/03/11 04:09:35;;;;;;;31.20;28.15;;;;;;;7.65;100.00;99807.13;5076169;28;20021;-39
2024/03/11 04:12:03;;;;;;;;;;;;;;;7.74;100.00;99807.59;5076522;28;20028;-39
2024/03/11 04:14:29;;;;;;;30.67;27.67;;;;;;;7.63;100.00;99811.13;5076017;28;19909;-39
2024/03/11 04:16:55;;;;;;;32.63;29.35;;;;;;;7.60;100.00;99808.91;5075972;28;20032;-39
2024/03/11 04:19:20;;;;;;;33.40;29.90;;;;;;;7.59;100.00;99808.09;5075730;28;20030;-41
2024/03/11 04:21:47;;;;;;;32.83;29.52;;;;;;;7.47;100.00;99794.66;5075948;28;20021;-39
2024/03/11 04:24:14;;;;;;;33.50;30.08;;;;;;;7.55;100.00;99806.94;5076113;28;20074;-39
2024/03/11 04:26:39;;;;;;;32.72;29.42;;;;;;;7.56;100.00;99808.56;5075871;28;20075;-39
2024/03/11 04:29:05;;;;;;;32.42;29.05;;;;;;;7.52;100.00;99810.09;5076696;28;20020;-40
2024/03/11 04:31:33;;;;;;;33.05;29.48;;;;;;;7.46;100.00;99793.00;5075779;28;20028;-39
2024/03/11 04:33:58;;;;;;;32.65;29.35;;;;;;;7.55;100.00;99806.09;5075779;28;20468;-39
2024/03/11 04:36:24;;;;;;;32.50;29.08;;;;;;;7.52;100.00;99801.22;5075613;28;20016;-39
2024/03/11 04:38:49;;;;;;;34.55;30.95;;;;;;;7.58;100.00;99805.66;5075896;28;20100;-40
2024/03/11 04:41:15;;;;;;;33.28;29.90;;;;;;;7.57;100.00;99814.78;5075548;28;20107;-39
2024/03/11 04:43:40;;;;;;;34.63;31.13;;;;;;;7.47;100.00;99802.75;5075778;28;20025;-39
2024/03/11 04:46:09;;;;;;;33.38;29.98;;;;;;;7.55;100.00;99817.69;5075945;28;20441;-40
2024/03/11 04:48:35;;;;;;;34.17;30.67;;;;;;;7.48;100.00;99804.38;5075946;28;20353;-40
2024/03/11 04:51:04;;;;;;;34.30;30.75;;;;;;;7.51;100.00;99813.81;5075640;28;20404;-40
2024/03/11 04:53:30;;;;;;;33.13;29.67;;;;;;;7.46;100.00;99801.06;5075676;28;20023;-40
2024/03/11 04:55:55;;;;;;;32.80;29.42;;;;;;;7.57;100.00;99812.09;5075970;28;20044;-40
2024/03/11 04:58:21;;;;;;;33.47;30.13;;;;;;;7.56;100.00;99813.13;5075570;28;20028;-40
2024/03/11 05:00:47;;;;;;;33.72;30.15;;;;;;;7.53;100.00;99813.59;5075243;28;20025;-39
2024/03/11 05:03:13;;;;;;;34.13;30.50;;;;;;;7.49;100.00;99810.56;5074940;28;20024;-40
2024/03/11 05:05:40;;;;;;;35.20;31.52;;;;;;;7.54;100.00;99821.44;5074868;28;20024;-40
2024/03/11 05:08:06;;;;;;;34.47;30.92;;;;;;;7.51;100.00;99821.06;5075065;28;20017;-40
2024/03/11 05:10:31;;;;;;;34.85;31.25;;;;;;;7.49;100.00;99819.44;5074813;28;20035;-40
2024/03/11 05:12:58;;;;;;;34.50;30.83;;;;;;;7.49;100.00;99832.91;5075670;28;20020;-40
2024/03/11 05:15:25;;;;;;;34.65;31.08;;;;;;;7.45;100.00;99830.91;5075037;28;20059;-37
2024/03/11 05:17:51;;;;;;;34.88;31.20;;;;;;;7.47;100.00;99826.94;5074834;28;20017;-40
2024/03/11 05:20:18;;;;;;;35.03;31.37;;;;;;;7.41;100.00;99833.25;5075408;28;20031;-40
2024/03/11 05:22:44;;;;;;;35.13;31.52;;;;;;;7.46;100.00;99835.22;5074403;28;20309;-40
2024/03/11 05:25:20;;;;;;;34.55;30.95;;;;;;;7.49;100.00;99840.16;5074699;28;20028;-40
2024/03/11 05:27:46;;;;;;;35.83;32.17;;;;;;;7.42;100.00;99829.53;5074454;28;20070;-40
2024/03/11 05:30:12;;;;;;;37.00;33.20;;;;;;;7.49;100.00;99835.59;5074611;28;20034;-39
2024/03/11 05:32:38;;;;;;;36.00;32.28;;;;;;;7.51;100.00;99842.59;5074850;28;20036;-38
2024/03/11 05:35:03;;;;;;;36.17;31.40;;;;;;;7.51;100.00;99845.28;5074986;28;20111;-39
2024/03/11 05:37:29;;;;;;;36.42;32.63;;;;;;;7.46;100.00;99846.00;5074401;28;20063;-39
2024/03/11 05:39:55;;;;;;;35.23;31.60;;;;;;;7.39;100.00;99839.94;5074697;28;20108;-39
2024/03/11 05:42:21;;;;;;;36.88;32.88;;;;;;;7.44;100.00;99862.38;5074057;28;20025;-39
2024/03/11 05:44:47;;;;;;;;;;;;;;;7.56;100.00;99856.16;5075017;28;20032;-40
2024/03/11 05:47:13;;;;;;;35.40;31.60;;;;;;;7.44;100.00;99862.38;5074567;28;20002;-40
2024/03/11 05:49:39;;;;;;;37.17;33.17;;;;;;;7.41;100.00;99852.06;5074805;28;20108;-39
2024/03/11 05:52:04;;;;;;;36.92;33.03;;;;;;;7.27;100.00;99842.63;5074236;28;20466;-40
2024/03/11 05:54:30;;;;;;;37.00;33.15;;;;;;;7.38;100.00;99860.63;5074260;28;20057;-40
2024/03/11 05:57:00;;;;;;;37.30;33.28;;;;;;;7.33;100.00;99851.63;5074385;28;20016;-40
2024/03/11 05:59:27;;;;;;;36.40;32.55;;;;;;;7.40;100.00;99871.97;5074538;28;20127;-40
2024/03/11 06:01:53;;;;;;;36.78;32.05;;;;;;;7.40;100.00;99874.66;5074017;28;20028;-40
2024/03/11 06:04:19;;;;;;;36.22;32.25;;;;;;;7.34;100.00;99864.84;5073703;28;20358;-40
2024/03/11 06:06:48;;;;;;;37.05;33.05;;;;;;;7.38;100.00;99876.78;5073656;28;20027;-40
2024/03/11 06:09:16;;;;;;;35.72;31.92;;;;;;;7.35;100.00;99876.41;5074520;28;20055;-40
2024/03/11 06:11:43;;;;;;;36.70;32.70;;;;;;;7.31;100.00;99877.91;5073812;28;20027;-40
2024/03/11 06:14:14;;;;;;;35.75;31.95;;;;;;;7.39;100.00;99886.47;5074128;28;20365;-40
2024/03/11 06:16:43;;;;;;;35.83;31.98;;;;;;;7.33;100.00;99884.72;5073571;28;20449;-40
2024/03/11 06:19:10;;;;;;;35.25;31.55;;;;;;;7.36;100.00;99889.63;5073499;28;20024;-40
2024/03/11 06:21:37;;;;;;;35.97;32.20;;;;;;;7.37;100.00;99899.34;5074191;28;20027;-39
2024/03/11 06:24:02;;;;;;;;;;;;;;;7.47;100.00;99899.59;5074101;28;20055;-39
2024/03/11 06:26:28;;;;;;;33.60;30.10;;;;;;;7.41;100.00;99903.19;5073579;28;19993;-39
2024/03/11 06:28:55;;;;;;;34.75;31.00;;;;;;;7.38;100.00;99900.16;5074101;28;20020;-39
2024/03/11 06:31:22;;;;;;;36.03;32.08;;;;;;;7.35;100.00;99898.75;5073231;28;20016;-39
2024/03/11 06:33:50;;;;;;;35.97;32.05;;;;;;;7.39;100.00;99915.25;5073975;28;20345;-39
2024/03/11 06:36:17;;;;;;;35.67;31.75;;;;;;;7.40;100.00;99919.56;5073492;28;20403;-39
2024/03/11 06:38:48;;;;;;;35.15;31.60;;;;;;;7.30;100.00;99909.38;5073476;28;20028;-39
2024/03/11 06:41:17;;;;;;;35.55;31.67;;;;;;;7.38;100.00;99925.19;5073782;28;20098;-39
2024/03/11 06:43:47;;;;;;;35.92;32.20;;;;;;;7.36;100.00;99931.81;5074314;28;20348;-39
2024/03/11 06:46:14;;;;;;;34.35;30.80;;;;;;;7.38;100.00;99929.75;5073960;28;20099;-40
2024/03/11 06:48:42;;;;;;;36.13;32.28;;;;;;;7.41;100.00;99942.72;5073454;28;20032;-39
2024/03/11 06:51:09;;;;;;;34.40;30.80;;;;;;;7.41;100.00;99940.03;5073441;28;20028;-39
2024/03/11 06:53:34;;;;;;;33.38;29.90;;;;;;;7.43;100.00;99936.06;5073706;28;20020;-39
2024/03/11 06:56:01;;;;;;;36.05;32.15;;;;;;;7.44;100.00;99935.00;5073964;28;20055;-40
2024/03/11 06:58:27;;;;;;;;;;;;;;;7.53;100.00;99937.34;5074712;28;20111;-39
2024/03/11 07:00:52;;;;;;;33.10;29.65;;;;;;;7.39;100.00;99929.50;5073854;28;19991;-39
2024/03/11 07:03:17;;;;;;;34.00;30.40;;;;;;;7.41;100.00;99937.34;5074207;28;20502;-40
2024/03/11 07:05:43;;;;;;;35.33;31.73;;;;;;;7.47;100.00;99941.81;5073538;28;20020;-39
2024/03/11 07:08:09;;;;;;;35.00;31.33;;;;;;;7.36;100.00;99938.03;5073304;28;20262;-39
2024/03/11 07:10:34;;;;;;;35.65;31.80;;;;;;;7.40;100.00;99949.97;5073564;28;20103;-39
2024/03/11 07:13:01;;;;;;;35.53;31.77;;;;;;;7.43;100.00;99949.50;5073496;28;20024;-39
2024/03/11 07:15:26;;;;;;;33.50;29.95;;;;;;;7.38;100.00;99938.63;5073087;28;20027;-38
2024/03/11 07:17:52;;;;;;;33.37;29.87;;;;;;;7.40;100.00;99939.19;5077282;28;20020;-38
2024/03/11 07:20:17;;;;;;;32.95;29.58;;;;;;;7.45;100.00;99947.41;5077202;28;20027;-39
2024/03/11 07:22:43;;;;;;;33.10;29.77;;;;;;;7.40;100.00;99946.47;5077103;28;20024;-39
2024/03/11 07:25:17;;;;;;;33.50;30.02;;;;;;;7.45;100.00;99952.78;5077103;28;20262;-39
2024/03/11 07:27:47;;;;;;;32.75;29.35;;;;;;;7.33;100.00;99935.00;5077532;28;20021;-39
2024/03/11 07:30:14;;;;;;;32.25;28.75;;;;;;;7.46;100.00;99965.16;5077270;28;20028;-39
2024/03/11 07:32:40;;;;;;;30.95;27.80;;;;;;;7.30;100.00;99930.88;5077461;28;20410;-39
2024/03/11 07:35:05;;;;;;;32.08;28.88;;;;;;;7.45;100.00;99962.72;5077079;28;20107;-39
2024/03/11 07:37:36;;;;;;;30.88;27.80;;;;;;;7.47;100.00;99964.16;5077168;28;20183;-40
2024/03/11 07:40:06;;;;;;;33.28;29.88;;;;;;;7.44;100.00;99961.09;5077337;28;20020;-39
2024/03/11 07:42:32;;;;;;;32.60;29.30;;;;;;;7.38;100.00;99954.78;5076737;28;20016;-40
2024/03/11 07:44:57;;;;;;;33.33;29.85;;;;;;;7.42;100.00;99968.59;5076440;28;20100;-40
2024/03/11 07:47:23;;;;;;;32.40;29.13;;;;;;;7.42;100.00;99964.03;5076634;28;20107;-40
2024/03/11 07:49:48;;;;;;;33.23;29.77;;;;;;;7.41;100.00;99967.72;5076244;28;20109;-40
2024/03/11 07:52:14;;;;;;;30.93;27.80;;;;;;;7.39;100.00;99956.41;5076300;28;20074;-40
2024/03/11 07:54:40;;;;;;;29.35;26.27;;;;;;;7.27;100.00;99947.50;5076863;28;20033;-40
2024/03/11 07:57:05;;;;;;;;;;;;;;;7.48;100.00;99973.84;5077681;28;20032;-39
2024/03/11 07:59:31;;;;;;;29.65;26.55;;;;;;;7.41;100.00;99973.13;5076187;28;19904;-39
2024/03/11 08:01:57;;;;;;;30.53;27.37;;;;;;;7.37;100.00;99966.59;5076359;28;20024;-39
2024/03/11 08:04:24;;;;;;;30.40;27.20;;;;;;;7.40;100.00;99976.88;5077141;28;20020;-39
2024/03/11 08:06:50;;;;;;;30.42;27.35;;;;;;;7.41;100.00;99978.50;5076748;28;20082;-39
2024/03/11 08:09:16;;;;;;;31.20;27.85;;;;;;;7.39;100.00;99963.66;5076267;28;20453;-39
2024/03/11 08:11:42;;;;;;;30.00;26.95;;;;;;;7.36;100.00;99959.53;5076107;28;20111;-39
2024/03/11 08:14:08;;;;;;;29.65;26.75;;;;;;;7.42;100.00;99973.97;5076083;28;20087;-39
2024/03/11 08:16:33;;;;;;;30.45;27.23;;;;;;;7.41;100.00;99966.91;5075796;28;20024;-39
2024/03/11 08:18:59;;;;;;;29.00;26.10;;;;;;;7.45;100.00;99973.47;5076379;28;20021;-39
2024/03/11 08:21:24;;;;;;;28.27;25.25;;;;;;;7.46;100.00;99972.41;5076058;28;20321;-39
2024/03/11 08:23:50;;;;;;;27.52;24.63;;;;;;;7.44;100.00;99982.59;5076031;28;20031;-39
2024/03/11 08:26:18;;;;;;;27.88;25.05;;;;;;;7.44;100.00;99974.53;5075560;28;20103;-39
2024/03/11 08:28:44;;;;;;;26.55;23.85;;;;;;;7.44;100.00;99969.97;5075893;28;20052;-39
2024/03/11 08:31:09;;;;;;;28.33;25.52;;;;;;;7.40;100.00;99965.28;5076110;28;20098;-39
2024/03/11 08:33:38;;;;;;;27.20;24.40;;;;;;;7.44;100.00;99975.34;5075830;28;20028;-39
2024/03/11 08:36:06;;;;;;;27.02;24.33;;;;;;;7.43;100.00;99965.66;5076538;28;20103;-39
2024/03/11 08:38:33;;;;;;;29.75;26.70;;;;;;;7.42;100.00;99982.03;5076555;28;20028;-39
2024/03/11 08:41:05;;;;;;;29.73;26.73;;;;;;;7.41;100.00;99978.50;5076185;28;20348;-39
2024/03/11 08:43:31;;;;;;;29.23;26.23;;;;;;;7.38;100.00;99984.34;5076187;28;20020;-39
2024/03/11 08:45:57;;;;;;;28.75;25.80;;;;;;;7.39;100.00;99985.16;5075585;28;20039;-39
2024/03/11 08:48:23;;;;;;;29.10;26.10;;;;;;;7.34;100.00;99980.47;5075819;28;20379;-38
2024/03/11 08:50:49;;;;;;;;;;;;;;;7.49;100.00;99988.09;5075942;28;20031;-38
2024/03/11 08:53:15;;;;;;;29.08;25.98;;;;;;;7.45;100.00;99987.75;5075699;28;20276;-39
2024/03/11 08:55:40;;;;;;;;;;;;;;;7.53;100.00;99986.59;5076217;28;20037;-39
2024/03/11 08:58:06;;;;;;;28.25;25.35;;;;;;;7.40;100.00;99965.28;5076196;28;19915;-39
2024/03/11 09:00:36;;;;;;;28.27;25.38;;;;;;;7.48;100.00;99978.41;5075786;28;20040;-38
2024/03/11 09:03:03;;;;;;;29.42;26.35;;;;;;;7.45;100.00;99968.91;5075667;28;20024;-39
2024/03/11 09:05:28;;;;;;;28.77;25.80;;;;;;;7.54;100.00;99988.22;5075198;28;20107;-39
2024/03/11 09:07:56;;;;;;;29.50;26.45;;;;;;;7.58;100.00;99996.66;5074937;28;20099;-39
2024/03/11 09:10:22;;;;;;;28.48;25.60;;;;;;;7.54;100.00;99996.31;5075466;28;20025;-40
2024/03/11 09:12:49;;;;;;;;;;;;;;;7.64;100.00;100003.81;5075493;28;20032;-40
2024/03/11 09:15:17;;;;;;;25.77;23.13;;;;;;;7.53;100.00;99996.53;5075843;28;19908;-39
2024/03/11 09:17:45;;;;;;;27.80;24.98;;;;;;;7.54;100.00;100014.31;5074953;28;20016;-38
2024/03/11 09:20:15;;;;;;;27.63;24.92;;;;;;;7.51;100.00;100014.78;5075221;28;20024;-38
2024/03/11 09:22:50;;;;;;;27.63;24.75;;;;;;;7.53;100.00;100018.06;5075446;28;20032;-39
2024/03/11 09:25:25;;;;;;;27.38;24.65;;;;;;;7.57;100.00;100027.31;5075645;28;20368;-39
2024/03/11 09:28:00;;;;;;;26.48;23.77;;;;;;;7.57;100.00;100019.25;5074480;28;20028;-39
2024/03/11 09:30:28;;;;;;;27.08;24.40;;;;;;;7.61;100.00;100023.09;5075558;28;20024;-39
2024/03/11 09:32:55;;;;;;;26.92;24.20;;;;;;;7.64;100.00;100030.72;5074603;28;20025;-39
2024/03/11 09:35:20;;;;;;;;;;;;;;;7.72;100.00;100025.00;5075703;28;20031;-39
2024/03/11 09:37:46;;;;;;;26.60;23.85;;;;;;;7.68;100.00;100029.22;5074570;28;20264;-38
2024/03/11 09:40:19;;;;;;;26.30;23.70;;;;;;;7.66;100.00;100028.59;5074036;28;20140;-38
2024/03/11 09:42:46;;;;;;;26.58;23.98;;;;;;;7.58;100.00;100021.69;5074216;28;20029;-39
2024/03/11 09:45:17;;;;;;;25.83;23.25;;;;;;;7.61;100.00;100023.09;5074441;28;20024;-40
2024/03/11 09:47:44;;;;;;;26.60;24.00;;;;;;;7.62;100.00;100030.13;5074381;28;20461;-39
2024/03/11 09:50:11;;;;;;;28.13;25.15;;;;;;;7.69;100.00;100049.69;5074945;28;20028;-39
2024/03/11 09:52:36;;;;;;;26.55;23.85;;;;;;;7.72;100.00;100052.72;5074538;28;20048;-39
2024/03/11 09:55:05;;;;;;;27.00;24.33;;;;;;;7.74;100.00;100047.94;5074359;28;20143;-39
2024/03/11 09:57:31;;;;;;;27.08;24.48;;;;;;;7.69;100.00;100037.03;5074513;28;20119;-39
2024/03/11 09:59:59;;;;;;;;;;;;;;;7.84;100.00;100052.75;5074952;28;20095;-40
2024/03/11 10:02:26;;;;;;;25.92;23.33;;;;;;;7.77;100.00;100048.53;5073826;28;19962;-39
2024/03/11 10:04:54;;;;;;;26.75;24.05;;;;;;;7.78;100.00;100053.69;5074637;28;20028;-39
2024/03/11 10:07:23;;;;;;;26.63;24.02;;;;;;;7.78;100.00;100052.84;5074032;28;20032;-39
2024/03/11 10:09:48;;;;;;;27.75;24.83;;;;;;;7.75;100.00;100056.81;5073940;28;20457;-39
2024/03/11 10:12:19;;;;;;;28.27;25.48;;;;;;;7.77;100.00;100073.56;5073990;28;20025;-39
2024/03/11 10:14:46;;;;;;;26.40;23.83;;;;;;;7.72;100.00;100066.19;5074392;28;20025;-39
2024/03/11 10:17:28;;;;;;;28.17;25.27;;;;;;;7.73;100.00;100070.50;5074645;28;20024;-39
2024/03/11 10:20:00;;;;;;;28.75;25.98;;;;;;;7.73;100.00;100075.91;5074415;28;20132;-39
2024/03/11 10:22:28;;;;;;;28.17;25.27;;;;;;;7.71;100.00;100072.63;5073835;28;20104;-39
2024/03/11 10:24:55;;;;;;;28.45;25.55;;;;;;;7.66;100.00;100060.88;5073743;28;20028;-39
2024/03/11 10:27:22;;;;;;;29.33;26.35;;;;;;;7.70;100.00;100078.22;5073424;28;20544;-39
2024/03/11 10:29:49;;;;;;;29.25;26.35;;;;;;;7.68;100.00;100075.78;5074072;28;20080;-39
2024/03/11 10:32:41;;;;;;;29.27;26.40;;;;;;;7.72;100.00;100078.84;5073683;28;20028;-39
2024/03/11 10:35:09;;;;;;;29.67;26.67;;;;;;;7.62;100.00;100074.00;5074196;28;20044;-39
2024/03/11 10:37:37;;;;;;;27.95;25.25;;;;;;;7.67;100.00;100089.47;5074104;28;20334;-39
2024/03/11 10:40:10;;;;;;;28.52;25.75;;;;;;;7.65;100.00;100081.59;5073611;28;20452;-39
2024/03/11 10:42:36;;;;;;;31.33;28.13;;;;;;;7.65;100.00;100086.16;5073264;28;20054;-39
2024/03/11 10:45:05;;;;;;;29.20;26.30;;;;;;;7.66;100.00;100090.50;5073565;28;20059;-39
2024/03/11 10:47:30;;;;;;;28.63;25.75;;;;;;;7.62;100.00;100089.34;5073531;28;20360;-39
2024/03/11 10:50:00;;;;;;;28.40;25.60;;;;;;;7.66;100.00;100094.03;5073376;28;20035;-39
2024/03/11 10:52:30;;;;;;;28.80;25.90;;;;;;;7.60;100.00;100086.84;5073680;28;20056;-39
2024/03/11 10:54:59;;;;;;;30.13;27.23;;;;;;;7.68;100.00;100099.19;5073716;28;20044;-39
2024/03/11 10:57:30;;;;;;;29.75;26.67;;;;;;;7.69;100.00;100085.47;5073744;28;20032;-39
2024/03/11 10:59:58;;;;;;;26.05;23.45;;;;;;;7.71;100.00;100099.53;5073106;28;20487;-39
2024/03/11 11:02:26;;;;;;;27.38;24.63;;;;;;;7.70;100.00;100105.13;5073363;28;20100;-39
2024/03/11 11:04:55;;;;;;;28.48;25.60;;;;;;;7.75;100.00;100114.16;5073406;28;20032;-39
2024/03/11 11:07:30;;;;;;;28.67;25.77;;;;;;;7.77;100.00;100111.25;5073889;28;20013;-39
2024/03/11 11:10:01;;;;;;;27.02;24.42;;;;;;;7.79;100.00;100108.31;5073631;28;20017;-39
2024/03/11 11:12:29;;;;;;;26.15;23.55;;;;;;;7.78;100.00;100118.28;5073017;28;20032;-39
2024/03/11 11:15:05;;;;;;;25.92;23.40;;;;;;;7.75;100.00;100106.09;5074051;28;20028;-39
2024/03/11 11:17:37;;;;;;;25.40;22.90;;;;;;;7.71;100.00;100106.75;5073309;28;20028;-40
2024/03/11 11:20:17;;;;;;;25.23;22.73;;;;;;;7.76;100.00;100120.38;5073000;28;20025;-39